createdAt,value
2023-01-05T00:00:48.040Z,84.88
2023-01-05T00:03:15.184Z,84.77
2023-01-05T00:05:42.273Z,85.08
2023-01-05T00:08:09.363Z,86.02
2023-01-05T00:10:40.818Z,85.59
2023-01-05T00:13:12.207Z,84.55
2023-01-05T00:15:43.069Z,85.05
2023-01-05T00:18:16.412Z,84.79
2023-01-05T00:20:46.699Z,84.73
2023-01-05T00:23:13.795Z,84.66
2023-01-05T00:25:41.397Z,84.69
2023-01-05T00:28:08.561Z,84.34
2023-01-05T00:30:38.864Z,84.25
2023-01-05T00:33:08.460Z,84.59
2023-01-05T00:35:35.650Z,84.29
2023-01-05T00:38:02.722Z,84.27
2023-01-05T00:40:29.851Z,84.38
2023-01-05T00:42:56.957Z,84.98
2023-01-05T00:45:24.097Z,84.64
2023-01-05T00:47:52.359Z,84.51
2023-01-05T00:50:19.459Z,84.16
2023-01-05T00:52:46.601Z,84.18
2023-01-05T00:55:14.007Z,84.02
2023-01-05T00:57:41.237Z,83.68
2023-01-05T01:00:11.407Z,83.79
2023-01-05T01:02:38.431Z,84.05
2023-01-05T01:05:06.052Z,83.71
2023-01-05T01:07:33.202Z,84.19
2023-01-05T01:10:00.312Z,84.35
2023-01-05T01:12:27.382Z,83.60
2023-01-05T01:14:54.389Z,83.55
2023-01-05T01:17:21.399Z,84.38
2023-01-05T01:19:48.559Z,83.85
2023-01-05T01:22:15.720Z,83.75
2023-01-05T01:24:42.847Z,84.22
2023-01-05T01:27:09.973Z,84.00
2023-01-05T01:29:37.093Z,83.46
2023-01-05T01:32:04.319Z,83.92
2023-01-05T01:34:31.649Z,84.49
2023-01-05T01:36:59.438Z,84.20
2023-01-05T01:39:26.472Z,83.94
2023-01-05T01:41:53.554Z,84.06
2023-01-05T01:44:23.680Z,83.84
2023-01-05T01:46:50.699Z,83.62
2023-01-05T01:49:17.892Z,83.83
2023-01-05T01:51:47.387Z,83.29
2023-01-05T01:54:18.387Z,83.47
2023-01-05T01:56:48.221Z,84.44
2023-01-05T01:59:15.974Z,84.50
2023-01-05T02:01:43.105Z,84.44
2023-01-05T02:04:10.616Z,84.87
2023-01-05T02:06:38.548Z,84.55
2023-01-05T02:09:06.730Z,84.04
2023-01-05T02:11:36.947Z,84.29
2023-01-05T02:14:07.094Z,84.61
2023-01-05T02:16:37.195Z,84.44
2023-01-05T02:19:07.414Z,84.60
2023-01-05T02:21:35.920Z,85.05
2023-01-05T02:24:04.340Z,84.95
2023-01-05T02:26:34.474Z,85.21
2023-01-05T02:29:11.651Z,85.27
2023-01-05T02:31:40.154Z,85.08
2023-01-05T02:34:09.924Z,84.59
2023-01-05T02:36:42.810Z,85.41
2023-01-05T02:39:11.209Z,85.43
2023-01-05T02:41:40.931Z,85.03
2023-01-05T02:44:08.779Z,85.72
2023-01-05T02:46:35.885Z,86.08
2023-01-05T02:49:04.625Z,86.03
2023-01-05T02:51:35.073Z,86.55
2023-01-05T02:54:07.177Z,86.88
2023-01-05T02:56:37.894Z,86.68
2023-01-05T02:59:09.116Z,86.05
2023-01-05T03:01:39.769Z,86.16
2023-01-05T03:04:09.872Z,86.02
2023-01-05T03:06:47.378Z,85.81
2023-01-05T03:09:16.484Z,86.29
2023-01-05T03:11:49.171Z,85.74
2023-01-05T03:14:21.137Z,85.71
2023-01-05T03:16:49.819Z,85.90
2023-01-05T03:19:22.894Z,86.56
2023-01-05T03:21:54.203Z,86.00
2023-01-05T03:24:24.479Z,85.79
2023-01-05T03:26:54.752Z,85.79
2023-01-05T03:29:24.843Z,85.90
2023-01-05T03:31:58.419Z,86.06
2023-01-05T03:34:28.900Z,86.57
2023-01-05T03:37:01.373Z,86.79
2023-01-05T03:39:30.710Z,86.60
2023-01-05T03:41:58.395Z,86.65
2023-01-05T03:44:25.537Z,87.42
2023-01-05T03:46:52.610Z,87.64
2023-01-05T03:49:19.722Z,87.06
2023-01-05T03:51:46.710Z,87.41
2023-01-05T03:54:13.830Z,87.17
2023-01-05T03:56:40.853Z,86.36
2023-01-05T03:59:07.955Z,86.45
2023-01-05T04:01:35.082Z,86.96
2023-01-05T04:04:02.180Z,86.93
2023-01-05T04:06:29.291Z,86.94
2023-01-05T04:08:56.355Z,87.02
2023-01-05T04:11:24.215Z,86.53
2023-01-05T04:13:51.298Z,86.51
2023-01-05T04:16:18.721Z,86.86
2023-01-05T04:18:45.995Z,87.69
2023-01-05T04:21:13.052Z,87.52
2023-01-05T04:23:40.252Z,86.51
2023-01-05T04:26:07.371Z,86.91
2023-01-05T04:28:34.412Z,86.95
2023-01-05T04:31:01.610Z,86.82
2023-01-05T04:33:28.698Z,87.19
2023-01-05T04:35:55.670Z,87.51
2023-01-05T04:38:22.748Z,87.34
2023-01-05T04:40:50.790Z,87.52
2023-01-05T04:43:18.534Z,88.40
2023-01-05T04:45:47.878Z,88.68
2023-01-05T04:48:15.067Z,88.25
2023-01-05T04:50:42.211Z,87.98
2023-01-05T04:53:09.413Z,87.88
2023-01-05T04:55:36.479Z,87.67
2023-01-05T04:58:10.089Z,87.46
2023-01-05T05:00:39.222Z,87.59
2023-01-05T05:03:06.434Z,87.53
2023-01-05T05:05:33.889Z,87.89
2023-01-05T05:08:00.899Z,87.87
2023-01-05T05:10:28.172Z,88.03
2023-01-05T05:12:55.298Z,87.79
2023-01-05T05:15:22.312Z,88.05
2023-01-05T05:17:49.463Z,88.90
2023-01-05T05:20:16.732Z,89.01
2023-01-05T05:22:43.853Z,88.81
2023-01-05T05:25:10.935Z,89.52
2023-01-05T05:27:37.999Z,89.57
2023-01-05T05:30:05.446Z,89.14
2023-01-05T05:32:32.520Z,89.55
2023-01-05T05:34:59.550Z,90.17
2023-01-05T05:37:26.549Z,89.68
2023-01-05T05:39:53.621Z,89.49
2023-01-05T05:42:20.691Z,90.49
2023-01-05T05:44:47.809Z,90.51
2023-01-05T05:47:14.830Z,90.20
2023-01-05T05:49:41.880Z,90.68
2023-01-05T05:52:08.971Z,90.98
2023-01-05T05:54:36.022Z,90.96
2023-01-05T05:57:03.196Z,91.03
2023-01-05T05:59:30.182Z,91.01
2023-01-05T06:01:57.306Z,90.61
2023-01-05T06:04:24.457Z,90.45
2023-01-05T06:06:51.492Z,90.51
2023-01-05T06:09:18.668Z,90.46
2023-01-05T06:11:45.935Z,90.45
2023-01-05T06:14:12.957Z,89.84
2023-01-05T06:16:39.995Z,90.19
2023-01-05T06:19:07.751Z,89.99
2023-01-05T06:21:34.972Z,89.33
2023-01-05T06:24:02.072Z,89.65
2023-01-05T06:26:29.219Z,90.03
2023-01-05T06:28:56.319Z,89.67
2023-01-05T06:31:23.551Z,89.88
2023-01-05T06:33:50.713Z,90.11
2023-01-05T06:36:17.739Z,90.26
2023-01-05T06:38:45.009Z,89.90
2023-01-05T06:41:12.254Z,90.25
2023-01-05T06:43:39.287Z,90.27
2023-01-05T06:46:06.478Z,89.86
2023-01-05T06:48:33.540Z,90.19
2023-01-05T06:51:00.679Z,90.21
2023-01-05T06:53:27.675Z,90.03
2023-01-05T06:55:54.892Z,89.77
2023-01-05T06:58:22.041Z,89.99
2023-01-05T07:00:49.172Z,90.03
2023-01-05T07:03:16.230Z,89.67
2023-01-05T07:05:43.350Z,89.71
2023-01-05T07:08:10.573Z,90.05
2023-01-05T07:10:37.737Z,89.86
2023-01-05T07:13:04.795Z,89.63
2023-01-05T07:15:31.850Z,90.39
2023-01-05T07:17:58.850Z,90.32
2023-01-05T07:20:25.949Z,90.03
2023-01-05T07:22:53.176Z,90.14
2023-01-05T07:25:20.259Z,90.22
2023-01-05T07:27:50.556Z,89.96
2023-01-05T07:30:17.623Z,90.41
2023-01-05T07:32:44.657Z,91.30
2023-01-05T07:35:11.712Z,91.44
2023-01-05T07:37:38.832Z,91.27
2023-01-05T07:40:06.375Z,91.17
2023-01-05T07:42:33.712Z,91.17
2023-01-05T07:45:00.889Z,91.08
2023-01-05T07:47:27.991Z,90.90
2023-01-05T07:49:55.301Z,91.58
2023-01-05T07:52:22.316Z,91.45
2023-01-05T07:54:49.428Z,91.62
2023-01-05T07:57:16.785Z,92.34
2023-01-05T07:59:43.830Z,92.68
2023-01-05T08:02:11.395Z,92.50
2023-01-05T08:04:38.662Z,92.69
2023-01-05T08:07:11.692Z,92.95
2023-01-05T08:09:42.555Z,92.68
2023-01-05T08:12:09.740Z,92.63
2023-01-05T08:14:36.801Z,93.28
2023-01-05T08:17:03.893Z,93.34
2023-01-05T08:19:30.925Z,93.07
2023-01-05T08:21:58.169Z,93.28
2023-01-05T08:24:25.243Z,93.31
2023-01-05T08:26:52.446Z,93.22
2023-01-05T08:29:22.750Z,93.69
2023-01-05T08:31:49.959Z,93.86
2023-01-05T08:34:17.181Z,94.14
2023-01-05T08:36:44.212Z,94.10
2023-01-05T08:39:11.736Z,93.69
2023-01-05T08:41:39.920Z,93.72
2023-01-05T08:44:08.283Z,94.25
2023-01-05T08:46:36.203Z,94.71
2023-01-05T08:49:04.814Z,94.52
2023-01-05T08:51:32.599Z,94.20
2023-01-05T08:53:59.610Z,94.37
2023-01-05T08:56:28.791Z,94.40
2023-01-05T08:58:59.572Z,94.62
2023-01-05T09:01:27.032Z,94.48
2023-01-05T09:03:54.186Z,94.30
2023-01-05T09:06:21.234Z,94.15
2023-01-05T09:08:49.024Z,95.41
2023-01-05T09:11:18.190Z,96.42
2023-01-05T09:13:47.650Z,96.78
2023-01-05T09:16:24.858Z,95.79
2023-01-05T09:19:04.925Z,94.80
2023-01-05T09:21:32.071Z,94.24
2023-01-05T09:23:59.549Z,94.46
2023-01-05T09:26:26.644Z,94.50
2023-01-05T09:28:53.750Z,94.19
2023-01-05T09:31:22.129Z,93.90
2023-01-05T09:33:49.374Z,93.88
2023-01-05T09:36:17.321Z,94.41
2023-01-05T09:38:48.529Z,93.83
2023-01-05T09:41:21.144Z,93.81
2023-01-05T09:43:49.600Z,93.73
2023-01-05T09:46:18.898Z,93.49
2023-01-05T09:48:47.938Z,93.62
2023-01-05T09:51:15.118Z,93.50
2023-01-05T09:53:42.291Z,93.46
2023-01-05T09:56:13.699Z,93.77
2023-01-05T09:58:43.155Z,93.99
2023-01-05T10:01:13.897Z,93.47
2023-01-05T10:06:34.921Z,93.45
2023-01-05T10:09:03.986Z,93.14
2023-01-05T10:11:35.611Z,92.63
2023-01-05T10:14:06.394Z,92.45
2023-01-05T10:16:33.490Z,92.46
2023-01-05T10:19:03.013Z,92.55
2023-01-05T10:21:33.254Z,92.64
2023-01-05T10:24:00.650Z,92.72
2023-01-05T10:26:45.197Z,92.23
2023-01-05T10:29:23.331Z,92.36
2023-01-05T10:31:52.753Z,92.03
2023-01-05T10:34:20.199Z,91.86
2023-01-05T10:37:11.661Z,91.40
2023-01-05T10:39:55.762Z,91.40
2023-01-05T10:42:26.303Z,91.27
2023-01-05T10:44:53.934Z,91.70
2023-01-05T10:47:22.187Z,91.06
2023-01-05T10:49:49.393Z,90.74
2023-01-05T10:52:17.951Z,90.55
2023-01-05T10:54:49.160Z,90.34
2023-01-05T10:57:19.489Z,90.61
2023-01-05T10:59:49.672Z,90.68
2023-01-05T11:02:16.959Z,90.80
2023-01-05T11:04:47.567Z,90.38
2023-01-05T11:07:14.756Z,90.05
2023-01-05T11:09:45.535Z,90.09
2023-01-05T11:12:16.820Z,89.88
2023-01-05T11:14:44.824Z,89.81
2023-01-05T11:17:16.701Z,89.74
2023-01-05T11:19:48.728Z,89.08
2023-01-05T11:22:18.896Z,89.37
2023-01-05T11:24:49.372Z,92.17
2023-01-05T11:27:19.573Z,91.16
2023-01-05T11:29:46.704Z,90.45
2023-01-05T11:32:14.016Z,89.09
2023-01-05T11:34:44.276Z,89.19
2023-01-05T11:37:12.796Z,89.00
2023-01-05T11:39:41.239Z,89.08
2023-01-05T11:42:10.299Z,88.53
2023-01-05T11:44:38.444Z,88.07
2023-01-05T11:47:06.481Z,87.74
2023-01-05T11:49:34.219Z,87.81
2023-01-05T11:52:01.466Z,87.87
2023-01-05T11:54:31.676Z,87.49
2023-01-05T11:57:02.906Z,87.43
2023-01-05T11:59:30.552Z,87.48
2023-01-05T12:01:58.292Z,86.77
2023-01-05T12:04:33.999Z,87.05
2023-01-05T12:07:04.189Z,86.62
2023-01-05T12:09:34.982Z,86.91
2023-01-05T12:12:05.906Z,86.77
2023-01-05T12:14:36.072Z,86.80
2023-01-05T12:17:09.042Z,86.96
2023-01-05T12:19:40.901Z,86.33
2023-01-05T12:22:08.420Z,86.46
2023-01-05T12:24:38.584Z,86.41
2023-01-05T12:27:08.900Z,85.72
2023-01-05T12:35:28.178Z,85.38
2023-01-05T12:37:58.337Z,85.35
2023-01-05T12:40:28.559Z,84.67
2023-01-05T12:42:59.269Z,84.38
2023-01-05T12:45:31.984Z,84.75
2023-01-05T12:48:05.555Z,84.29
2023-01-05T12:50:38.497Z,85.16
2023-01-05T12:53:14.200Z,85.15
2023-01-05T12:55:44.079Z,85.18
2023-01-05T12:58:15.296Z,85.40
2023-01-05T13:00:46.644Z,85.06
2023-01-05T13:03:19.898Z,84.79
2023-01-05T13:05:47.275Z,84.22
2023-01-05T13:08:17.944Z,83.81
2023-01-05T13:10:49.161Z,84.11
2023-01-05T13:13:18.664Z,83.94
2023-01-05T13:15:53.389Z,83.54
2023-01-05T13:18:21.782Z,83.39
2023-01-05T13:20:52.511Z,83.32
2023-01-05T13:23:22.835Z,83.46
2023-01-05T13:25:54.835Z,83.78
2023-01-05T13:28:24.574Z,83.41
2023-01-05T13:30:56.258Z,83.01
2023-01-05T13:33:24.818Z,82.78
2023-01-05T13:36:00.577Z,83.36
2023-01-05T13:38:31.723Z,83.64
2023-01-05T13:41:01.303Z,83.95
2023-01-05T13:43:31.350Z,83.58
2023-01-05T13:46:01.439Z,82.96
2023-01-05T13:48:44.179Z,83.09
2023-01-05T13:51:21.559Z,82.76
2023-01-05T13:53:51.268Z,83.14
2023-01-05T13:56:21.452Z,82.59
2023-01-05T13:58:51.649Z,82.28
2023-01-05T14:01:21.130Z,82.16
2023-01-05T14:03:51.037Z,82.66
2023-01-05T14:06:20.523Z,82.88
2023-01-05T14:08:50.711Z,82.26
2023-01-05T14:11:19.873Z,82.49
2023-01-05T14:13:50.032Z,82.65
2023-01-05T14:16:20.263Z,82.52
2023-01-05T14:18:48.890Z,81.82
2023-01-05T14:21:35.817Z,82.94
2023-01-05T14:24:02.850Z,81.87
2023-01-05T14:26:33.069Z,81.22
2023-01-05T14:29:00.197Z,80.44
2023-01-05T14:31:30.353Z,79.61
2023-01-05T14:33:58.831Z,80.59
2023-01-05T14:36:26.271Z,80.17
2023-01-05T14:38:53.420Z,80.14
2023-01-05T14:41:26.798Z,80.11
2023-01-05T14:43:57.682Z,79.48
2023-01-05T14:46:25.477Z,79.32
2023-01-05T14:48:55.639Z,79.25
2023-01-05T14:51:24.418Z,78.91
2023-01-05T14:53:52.674Z,78.51
2023-01-05T14:56:22.383Z,78.45
2023-01-05T14:58:54.250Z,78.96
2023-01-05T15:01:24.411Z,78.99
2023-01-05T15:03:52.095Z,79.28
2023-01-05T15:06:25.319Z,79.66
2023-01-05T15:08:55.702Z,79.78
2023-01-05T15:11:30.635Z,79.62
2023-01-05T15:14:03.866Z,78.98
2023-01-05T15:16:34.112Z,79.04
2023-01-05T15:19:01.491Z,79.41
2023-01-05T15:21:32.931Z,80.07
2023-01-05T15:24:02.045Z,79.54
2023-01-05T15:26:30.608Z,79.62
2023-01-05T15:31:30.671Z,79.74
2023-01-05T15:34:01.055Z,80.16
2023-01-05T15:36:30.940Z,79.72
2023-01-05T15:38:58.070Z,80.30
2023-01-05T15:41:26.747Z,80.49
2023-01-05T15:43:54.487Z,80.64
2023-01-05T15:46:23.860Z,81.19
2023-01-05T15:48:52.334Z,80.81
2023-01-05T15:51:22.702Z,82.07
2023-01-05T15:53:52.892Z,82.55
2023-01-05T15:56:23.238Z,82.08
2023-01-05T15:58:50.327Z,82.78
2023-01-05T16:01:17.467Z,82.47
2023-01-05T16:03:45.613Z,81.39
2023-01-05T16:06:15.778Z,81.37
2023-01-05T16:08:45.451Z,81.41
2023-01-05T16:11:14.435Z,81.88
2023-01-05T16:13:41.942Z,81.80
2023-01-05T16:16:24.719Z,82.10
2023-01-05T16:19:03.391Z,82.84
2023-01-05T16:21:33.715Z,82.81
2023-01-05T16:24:03.979Z,83.05
2023-01-05T16:26:32.024Z,82.85
2023-01-05T16:28:59.151Z,83.68
2023-01-05T16:31:28.960Z,84.62
2023-01-05T16:33:59.151Z,85.62
2023-01-05T16:36:26.610Z,86.30
2023-01-05T16:38:53.587Z,86.32
2023-01-05T16:41:22.128Z,86.52
2023-01-05T16:43:52.198Z,86.54
2023-01-05T16:46:20.976Z,87.12
2023-01-05T16:48:51.691Z,87.22
2023-01-05T16:51:20.181Z,87.86
2023-01-05T16:53:48.893Z,88.28
2023-01-05T16:56:19.112Z,87.63
2023-01-05T16:58:46.719Z,87.66
2023-01-05T17:01:14.223Z,87.36
2023-01-05T17:03:42.162Z,87.02
2023-01-05T17:06:17.971Z,86.44
2023-01-05T17:08:45.192Z,85.98
2023-01-05T17:11:13.082Z,86.10
2023-01-05T17:13:41.992Z,87.72
2023-01-05T17:16:11.190Z,89.54
2023-01-05T17:18:38.296Z,89.73
2023-01-05T17:21:06.555Z,87.77
2023-01-05T17:23:38.599Z,87.96
2023-01-05T17:26:07.994Z,87.53
2023-01-05T17:28:35.159Z,86.46
2023-01-05T17:31:02.444Z,87.24
2023-01-05T17:33:29.610Z,87.89
2023-01-05T17:35:56.743Z,87.27
2023-01-05T17:38:23.882Z,87.29
2023-01-05T17:40:51.015Z,86.88
2023-01-05T17:43:19.115Z,86.39
2023-01-05T17:45:46.570Z,86.18
2023-01-05T17:48:16.604Z,86.31
2023-01-05T17:50:44.455Z,86.99
2023-01-05T17:53:11.795Z,87.02
2023-01-05T17:55:38.999Z,87.28
2023-01-05T17:58:06.209Z,87.74
2023-01-05T18:00:35.341Z,87.02
2023-01-05T18:03:02.439Z,87.57
2023-01-05T18:05:29.548Z,88.36
2023-01-05T18:07:56.655Z,88.04
2023-01-05T18:10:26.690Z,87.49
2023-01-05T18:12:55.572Z,87.30
2023-01-05T18:15:22.764Z,87.46
2023-01-05T18:17:49.889Z,87.22
2023-01-05T18:20:19.778Z,87.28
2023-01-05T18:22:48.430Z,86.53
2023-01-05T18:25:15.776Z,87.22
2023-01-05T18:27:43.179Z,87.56
2023-01-05T18:30:11.123Z,87.33
2023-01-05T18:32:38.465Z,87.77
2023-01-05T18:35:09.341Z,87.27
2023-01-05T18:37:37.947Z,87.58
2023-01-05T18:40:05.918Z,88.58
2023-01-05T18:42:33.026Z,88.42
2023-01-05T18:45:04.994Z,87.93
2023-01-05T18:47:41.340Z,87.51
2023-01-05T18:50:09.430Z,87.20
2023-01-05T18:52:36.661Z,87.61
2023-01-05T18:55:04.130Z,87.90
2023-01-05T18:57:31.917Z,87.24
2023-01-05T18:59:59.138Z,87.25
2023-01-05T19:02:26.677Z,87.58
2023-01-05T19:04:53.801Z,88.39
2023-01-05T19:07:20.896Z,88.56
2023-01-05T19:09:48.040Z,87.74
2023-01-05T19:12:15.093Z,88.64
2023-01-05T19:14:42.333Z,89.02
2023-01-05T19:17:09.431Z,89.14
2023-01-05T19:19:36.699Z,88.68
2023-01-05T19:22:03.917Z,88.71
2023-01-05T19:24:32.161Z,88.34
2023-01-05T19:26:59.301Z,88.55
2023-01-05T19:29:26.432Z,89.04
2023-01-05T19:31:53.561Z,89.50
2023-01-05T19:34:20.657Z,88.71
2023-01-05T19:36:47.915Z,88.68
2023-01-05T19:39:16.102Z,88.56
2023-01-05T19:41:46.728Z,88.81
2023-01-05T19:44:16.056Z,89.54
2023-01-05T19:46:44.058Z,88.52
2023-01-05T19:49:14.297Z,88.30
2023-01-05T19:51:41.396Z,87.97
2023-01-05T19:54:10.648Z,88.14
2023-01-05T19:56:38.410Z,88.90
2023-01-05T19:59:07.437Z,88.35
2023-01-05T20:01:36.275Z,88.25
2023-01-05T20:04:04.001Z,87.73
2023-01-05T20:06:33.115Z,87.63
2023-01-05T20:09:01.114Z,87.93
2023-01-05T20:11:33.001Z,87.92
2023-01-05T20:14:03.535Z,87.18
2023-01-05T20:16:30.666Z,86.69
2023-01-05T20:18:57.739Z,87.15
2023-01-05T20:21:24.914Z,86.81
2023-01-05T20:23:52.181Z,86.85
2023-01-05T20:26:21.303Z,86.46
2023-01-05T20:28:49.184Z,87.32
2023-01-05T20:31:19.886Z,87.06
2023-01-05T20:33:47.107Z,86.56
2023-01-05T20:36:14.243Z,86.67
2023-01-05T20:38:41.369Z,86.38
2023-01-05T20:41:11.664Z,85.86
2023-01-05T20:43:38.822Z,86.20
2023-01-05T20:46:06.082Z,86.79
2023-01-05T20:48:33.191Z,86.88
2023-01-05T20:51:03.467Z,86.64
2023-01-05T20:53:30.671Z,85.34
2023-01-05T20:55:57.690Z,85.10
2023-01-05T20:58:24.829Z,84.85
2023-01-05T21:01:09.503Z,84.47
2023-01-05T21:03:38.838Z,83.98
2023-01-05T21:06:07.289Z,83.72
2023-01-05T21:08:34.724Z,83.63
2023-01-05T21:11:02.408Z,83.83
2023-01-05T21:13:30.953Z,83.70
2023-01-05T21:16:04.835Z,83.58
2023-01-05T21:18:32.756Z,83.63
2023-01-05T21:21:00.445Z,83.65
2023-01-05T21:23:27.992Z,84.32
2023-01-05T21:26:06.691Z,84.64
2023-01-05T21:28:38.539Z,85.30
2023-01-05T21:31:06.913Z,85.68
2023-01-05T21:33:34.757Z,85.21
2023-01-05T21:36:01.859Z,85.66
2023-01-05T21:39:01.187Z,85.79
2023-01-05T21:41:16.110Z,85.81
2023-01-05T21:43:43.477Z,86.21
2023-01-05T21:46:12.435Z,86.02
2023-01-05T21:48:39.672Z,86.90
2023-01-05T21:51:10.165Z,88.00
2023-01-05T21:53:40.502Z,88.44
2023-01-05T21:56:15.373Z,88.58
2023-01-05T21:58:42.517Z,88.99
2023-01-05T22:01:09.772Z,89.88
2023-01-05T22:03:37.089Z,90.41
2023-01-05T22:06:04.262Z,90.33
2023-01-05T22:08:31.450Z,90.42
2023-01-05T22:11:00.063Z,90.98
2023-01-05T22:13:27.259Z,90.26
2023-01-05T22:15:54.860Z,91.25
2023-01-05T22:18:22.613Z,91.48
2023-01-05T22:20:53.176Z,90.78
2023-01-05T22:23:20.539Z,90.32
2023-01-05T22:25:47.602Z,90.29
2023-01-05T22:28:14.752Z,90.26
2023-01-05T22:30:41.870Z,91.28
2023-01-05T22:33:08.984Z,90.49
2023-01-05T22:35:39.145Z,90.29
2023-01-05T22:38:06.215Z,89.69
2023-01-05T22:40:33.345Z,89.67
2023-01-05T22:43:00.439Z,88.90
2023-01-05T22:45:27.676Z,88.81
2023-01-05T22:47:54.816Z,90.28
2023-01-05T22:50:22.132Z,89.74
2023-01-05T22:52:50.472Z,89.84
2023-01-05T22:55:17.535Z,89.41
2023-01-05T22:57:44.726Z,89.27
2023-01-05T23:00:12.497Z,89.58
2023-01-05T23:02:39.609Z,89.97
2023-01-05T23:05:06.984Z,91.33
2023-01-05T23:07:34.020Z,92.48
2023-01-05T23:10:01.199Z,92.05
2023-01-05T23:12:28.332Z,93.17
2023-01-05T23:14:55.455Z,93.32
2023-01-05T23:17:22.680Z,93.82
2023-01-05T23:19:49.767Z,94.03
2023-01-05T23:22:16.923Z,93.33
2023-01-05T23:24:43.931Z,93.48
2023-01-05T23:27:11.033Z,93.19
2023-01-05T23:29:38.213Z,93.06
2023-01-05T23:32:05.599Z,92.85
2023-01-05T23:34:32.655Z,92.64
2023-01-05T23:36:59.783Z,92.31
2023-01-05T23:39:26.839Z,91.98
2023-01-05T23:41:54.131Z,91.61
2023-01-05T23:44:21.235Z,91.56
2023-01-05T23:46:48.353Z,90.99
2023-01-05T23:49:19.232Z,91.24
2023-01-05T23:51:46.351Z,90.52
2023-01-05T23:54:13.892Z,90.42
2023-01-05T23:56:41.148Z,90.31
2023-01-05T23:59:08.610Z,89.94
